sensor_id;sensor_type;location;lat;lon;timestamp;pressure;altitude;pressure_sealevel;temperature;humidity
11347;BME280;5728;42.722;23.258;2023-09-19T00:02:21;95130.25;;;16.98;80.77
11347;BME280;5728;42.722;23.258;2023-09-19T00:04:48;95140.72;;;16.98;81.09
11347;BME280;5728;42.722;23.258;2023-09-19T00:07:15;95132.28;;;16.90;81.71
11347;BME280;5728;42.722;23.258;2023-09-19T00:09:42;95125.38;;;16.88;81.60
11347;BME280;5728;42.722;23.258;2023-09-19T00:12:09;95121.00;;;16.62;82.69
11347;BME280;5728;42.722;23.258;2023-09-19T00:14:38;95129.47;;;16.70;82.97
11347;BME280;5728;42.722;23.258;2023-09-19T00:17:07;95130.50;;;16.66;83.12
11347;BME280;5728;42.722;23.258;2023-09-19T00:19:35;95125.25;;;16.66;82.79
11347;BME280;5728;42.722;23.258;2023-09-19T00:22:03;95121.69;;;16.69;83.23
11347;BME280;5728;42.722;23.258;2023-09-19T00:24:30;95119.19;;;16.64;83.26
11347;BME280;5728;42.722;23.258;2023-09-19T00:26:57;95112.41;;;16.58;83.82
11347;BME280;5728;42.722;23.258;2023-09-19T00:29:25;95115.06;;;16.57;83.58
11347;BME280;5728;42.722;23.258;2023-09-19T00:31:55;95103.69;;;16.58;83.98
11347;BME280;5728;42.722;23.258;2023-09-19T00:34:23;95104.16;;;16.43;84.53
11347;BME280;5728;42.722;23.258;2023-09-19T00:36:51;95109.13;;;16.52;84.19
11347;BME280;5728;42.722;23.258;2023-09-19T00:39:20;95115.34;;;16.48;84.54
11347;BME280;5728;42.722;23.258;2023-09-19T00:41:47;95116.97;;;16.52;84.49
11347;BME280;5728;42.722;23.258;2023-09-19T00:44:14;95122.91;;;16.57;84.29
11347;BME280;5728;42.722;23.258;2023-09-19T00:46:43;95121.34;;;16.78;83.71
11347;BME280;5728;42.722;23.258;2023-09-19T00:49:13;95122.41;;;16.72;83.64
11347;BME280;5728;42.722;23.258;2023-09-19T00:51:42;95114.97;;;16.60;83.98
11347;BME280;5728;42.722;23.258;2023-09-19T00:54:12;95121.41;;;16.76;84.12
11347;BME280;5728;42.722;23.258;2023-09-19T00:56:44;95117.44;;;16.89;83.28
11347;BME280;5728;42.722;23.258;2023-09-19T00:59:11;95114.72;;;16.92;83.33
11347;BME280;5728;42.722;23.258;2023-09-19T01:01:38;95109.72;;;16.86;82.64
11347;BME280;5728;42.722;23.258;2023-09-19T01:04:06;95108.44;;;16.98;82.57
11347;BME280;5728;42.722;23.258;2023-09-19T01:06:33;95107.91;;;16.88;83.33
11347;BME280;5728;42.722;23.258;2023-09-19T01:09:02;95113.19;;;16.87;83.27
11347;BME280;5728;42.722;23.258;2023-09-19T01:11:35;95112.25;;;16.63;84.46
11347;BME280;5728;42.722;23.258;2023-09-19T01:14:15;95120.81;;;16.68;84.04
11347;BME280;5728;42.722;23.258;2023-09-19T01:16:51;95122.06;;;16.56;84.39
11347;BME280;5728;42.722;23.258;2023-09-19T01:19:45;95124.09;;;16.47;85.68
11347;BME280;5728;42.722;23.258;2023-09-19T01:22:23;95119.59;;;16.52;85.29
11347;BME280;5728;42.722;23.258;2023-09-19T01:25:16;95113.84;;;16.67;85.12
11347;BME280;5728;42.722;23.258;2023-09-19T01:28:13;95119.50;;;16.81;83.91
11347;BME280;5728;42.722;23.258;2023-09-19T01:30:44;95116.88;;;16.81;83.19
11347;BME280;5728;42.722;23.258;2023-09-19T01:33:12;95120.31;;;16.83;83.58
11347;BME280;5728;42.722;23.258;2023-09-19T01:35:40;95126.72;;;16.19;84.51
11347;BME280;5728;42.722;23.258;2023-09-19T01:38:07;95124.75;;;16.00;85.27
11347;BME280;5728;42.722;23.258;2023-09-19T01:40:41;95124.75;;;16.00;86.64
11347;BME280;5728;42.722;23.258;2023-09-19T01:43:21;95122.53;;;15.86;86.68
11347;BME280;5728;42.722;23.258;2023-09-19T01:46:04;95114.66;;;15.87;87.02
11347;BME280;5728;42.722;23.258;2023-09-19T01:48:38;95123.38;;;16.16;86.38
11347;BME280;5728;42.722;23.258;2023-09-19T01:51:06;95130.91;;;16.25;85.87
11347;BME280;5728;42.722;23.258;2023-09-19T01:53:37;95121.88;;;16.35;85.40
11347;BME280;5728;42.722;23.258;2023-09-19T01:56:08;95111.41;;;16.35;84.33
11347;BME280;5728;42.722;23.258;2023-09-19T01:58:42;95108.94;;;16.30;86.02
11347;BME280;5728;42.722;23.258;2023-09-19T02:01:17;95109.19;;;16.49;84.72
11347;BME280;5728;42.722;23.258;2023-09-19T02:03:46;95119.31;;;16.61;84.21
11347;BME280;5728;42.722;23.258;2023-09-19T02:06:14;95126.56;;;16.53;84.54
11347;BME280;5728;42.722;23.258;2023-09-19T02:08:43;95119.88;;;16.43;84.30
11347;BME280;5728;42.722;23.258;2023-09-19T02:11:10;95126.16;;;16.10;85.91
11347;BME280;5728;42.722;23.258;2023-09-19T02:13:36;95121.22;;;16.01;87.29
11347;BME280;5728;42.722;23.258;2023-09-19T02:16:03;95113.72;;;16.18;86.60
11347;BME280;5728;42.722;23.258;2023-09-19T02:18:33;95113.88;;;16.12;85.39
11347;BME280;5728;42.722;23.258;2023-09-19T02:21:01;95106.56;;;15.95;85.16
11347;BME280;5728;42.722;23.258;2023-09-19T02:23:29;95105.53;;;16.01;85.32
11347;BME280;5728;42.722;23.258;2023-09-19T02:25:56;95113.13;;;15.80;86.62
11347;BME280;5728;42.722;23.258;2023-09-19T02:28:26;95109.91;;;16.00;86.93
11347;BME280;5728;42.722;23.258;2023-09-19T02:30:55;95119.59;;;15.38;87.43
11347;BME280;5728;42.722;23.258;2023-09-19T02:33:22;95111.88;;;14.69;91.53
11347;BME280;5728;42.722;23.258;2023-09-19T02:35:54;95109.88;;;14.80;92.01
11347;BME280;5728;42.722;23.258;2023-09-19T02:38:22;95099.63;;;15.05;90.37
11347;BME280;5728;42.722;23.258;2023-09-19T02:40:50;95103.38;;;14.95;90.73
11347;BME280;5728;42.722;23.258;2023-09-19T02:43:17;95099.31;;;15.15;90.60
11347;BME280;5728;42.722;23.258;2023-09-19T02:45:45;95090.13;;;15.01;91.20
11347;BME280;5728;42.722;23.258;2023-09-19T02:48:12;95087.81;;;15.21;91.57
11347;BME280;5728;42.722;23.258;2023-09-19T02:50:39;95091.31;;;15.52;89.89
11347;BME280;5728;42.722;23.258;2023-09-19T02:53:07;95085.16;;;15.53;88.80
11347;BME280;5728;42.722;23.258;2023-09-19T02:55:36;95083.66;;;15.46;88.37
11347;BME280;5728;42.722;23.258;2023-09-19T02:58:03;95086.72;;;15.60;88.54
11347;BME280;5728;42.722;23.258;2023-09-19T03:00:33;95080.41;;;15.67;87.90
11347;BME280;5728;42.722;23.258;2023-09-19T03:03:01;95079.25;;;15.48;87.60
11347;BME280;5728;42.722;23.258;2023-09-19T03:05:28;95076.75;;;15.13;89.97
11347;BME280;5728;42.722;23.258;2023-09-19T03:07:56;95074.69;;;15.24;89.93
11347;BME280;5728;42.722;23.258;2023-09-19T03:10:27;95079.25;;;15.48;89.50
11347;BME280;5728;42.722;23.258;2023-09-19T03:12:55;95067.03;;;15.78;88.43
11347;BME280;5728;42.722;23.258;2023-09-19T03:15:21;95072.66;;;15.92;88.00
11347;BME280;5728;42.722;23.258;2023-09-19T03:17:49;95079.38;;;15.73;88.09
11347;BME280;5728;42.722;23.258;2023-09-19T03:20:17;95064.44;;;15.76;87.97
11347;BME280;5728;42.722;23.258;2023-09-19T03:22:44;95071.69;;;15.67;88.93
11347;BME280;5728;42.722;23.258;2023-09-19T03:25:12;95065.34;;;15.75;88.91
11347;BME280;5728;42.722;23.258;2023-09-19T03:27:41;95066.63;;;15.90;87.63
11347;BME280;5728;42.722;23.258;2023-09-19T03:30:08;95072.91;;;15.84;87.27
11347;BME280;5728;42.722;23.258;2023-09-19T03:32:43;95081.69;;;14.91;90.18
11347;BME280;5728;42.722;23.258;2023-09-19T03:35:10;95083.22;;;14.67;92.17
11347;BME280;5728;42.722;23.258;2023-09-19T03:37:40;95084.38;;;14.56;92.34
11347;BME280;5728;42.722;23.258;2023-09-19T03:40:07;95089.19;;;14.73;92.82
11347;BME280;5728;42.722;23.258;2023-09-19T03:42:38;95092.19;;;14.90;92.27
11347;BME280;5728;42.722;23.258;2023-09-19T03:45:08;95094.81;;;14.90;92.99
11347;BME280;5728;42.722;23.258;2023-09-19T03:47:37;95102.38;;;14.99;92.32
11347;BME280;5728;42.722;23.258;2023-09-19T03:50:05;95095.78;;;15.18;91.79
11347;BME280;5728;42.722;23.258;2023-09-19T03:52:32;95099.69;;;15.02;91.44
11347;BME280;5728;42.722;23.258;2023-09-19T03:54:59;95093.25;;;15.13;90.19
11347;BME280;5728;42.722;23.258;2023-09-19T03:57:27;95093.97;;;15.20;89.79
11347;BME280;5728;42.722;23.258;2023-09-19T03:59:54;95094.88;;;14.87;89.88
11347;BME280;5728;42.722;23.258;2023-09-19T04:02:23;95096.00;;;14.44;92.25
11347;BME280;5728;42.722;23.258;2023-09-19T04:04:50;95103.44;;;14.24;94.19
11347;BME280;5728;42.722;23.258;2023-09-19T04:07:17;95108.38;;;14.36;94.61
11347;BME280;5728;42.722;23.258;2023-09-19T04:09:44;95118.72;;;14.75;94.07
11347;BME280;5728;42.722;23.258;2023-09-19T04:12:11;95109.41;;;14.64;95.40
11347;BME280;5728;42.722;23.258;2023-09-19T04:14:38;95110.81;;;14.78;94.30
11347;BME280;5728;42.722;23.258;2023-09-19T04:17:05;95120.38;;;14.77;93.99
11347;BME280;5728;42.722;23.258;2023-09-19T04:19:33;95109.06;;;14.77;93.58
11347;BME280;5728;42.722;23.258;2023-09-19T04:22:00;95104.97;;;15.00;92.16
11347;BME280;5728;42.722;23.258;2023-09-19T04:24:27;95099.50;;;15.09;91.27
11347;BME280;5728;42.722;23.258;2023-09-19T04:26:53;95105.84;;;14.99;91.79
11347;BME280;5728;42.722;23.258;2023-09-19T04:29:20;95103.66;;;14.84;93.33
11347;BME280;5728;42.722;23.258;2023-09-19T04:31:47;95096.34;;;14.97;92.67
11347;BME280;5728;42.722;23.258;2023-09-19T04:34:14;95096.34;;;14.97;92.36
11347;BME280;5728;42.722;23.258;2023-09-19T04:36:44;95099.28;;;15.17;91.29
11347;BME280;5728;42.722;23.258;2023-09-19T04:39:11;95092.00;;;15.28;90.34
11347;BME280;5728;42.722;23.258;2023-09-19T04:41:38;95093.63;;;15.32;90.63
11347;BME280;5728;42.722;23.258;2023-09-19T04:44:07;95097.22;;;15.28;90.82
11347;BME280;5728;42.722;23.258;2023-09-19T04:46:34;95088.91;;;15.14;91.04
11347;BME280;5728;42.722;23.258;2023-09-19T04:49:01;95089.91;;;15.10;90.99
11347;BME280;5728;42.722;23.258;2023-09-19T04:51:28;95083.75;;;15.11;90.43
11347;BME280;5728;42.722;23.258;2023-09-19T04:54:01;95087.53;;;15.31;89.60
11347;BME280;5728;42.722;23.258;2023-09-19T04:56:28;95088.25;;;15.37;89.87
11347;BME280;5728;42.722;23.258;2023-09-19T04:58:55;95091.31;;;15.21;90.03
11347;BME280;5728;42.722;23.258;2023-09-19T05:01:23;95095.66;;;15.21;90.69
11347;BME280;5728;42.722;23.258;2023-09-19T05:03:51;95097.50;;;15.50;89.53
11347;BME280;5728;42.722;23.258;2023-09-19T05:06:18;95079.78;;;15.59;89.22
11347;BME280;5728;42.722;23.258;2023-09-19T05:08:47;95084.13;;;15.60;89.13
11347;BME280;5728;42.722;23.258;2023-09-19T05:11:17;95085.09;;;16.13;88.43
11347;BME280;5728;42.722;23.258;2023-09-19T05:13:43;95090.28;;;16.41;85.71
11347;BME280;5728;42.722;23.258;2023-09-19T05:16:10;95084.72;;;16.50;85.70
11347;BME280;5728;42.722;23.258;2023-09-19T05:18:37;95081.97;;;16.56;85.68
11347;BME280;5728;42.722;23.258;2023-09-19T05:21:05;95080.56;;;16.71;85.95
11347;BME280;5728;42.722;23.258;2023-09-19T05:23:31;95083.53;;;17.11;83.84
11347;BME280;5728;42.722;23.258;2023-09-19T05:25:58;95078.94;;;17.41;82.50
11347;BME280;5728;42.722;23.258;2023-09-19T05:28:27;95075.97;;;17.50;81.58
11347;BME280;5728;42.722;23.258;2023-09-19T05:30:53;95069.34;;;17.64;80.81
11347;BME280;5728;42.722;23.258;2023-09-19T05:33:20;95068.56;;;17.84;80.14
11347;BME280;5728;42.722;23.258;2023-09-19T05:35:48;95071.84;;;18.12;79.23
11347;BME280;5728;42.722;23.258;2023-09-19T05:38:15;95067.66;;;18.28;78.52
11347;BME280;5728;42.722;23.258;2023-09-19T05:40:45;95070.75;;;18.38;78.09
11347;BME280;5728;42.722;23.258;2023-09-19T05:43:12;95074.13;;;18.41;77.57
11347;BME280;5728;42.722;23.258;2023-09-19T05:45:41;95067.69;;;18.50;77.20
11347;BME280;5728;42.722;23.258;2023-09-19T05:48:09;95072.28;;;18.43;77.20
11347;BME280;5728;42.722;23.258;2023-09-19T05:50:37;95071.38;;;18.44;76.48
11347;BME280;5728;42.722;23.258;2023-09-19T05:53:03;95073.53;;;18.57;77.04
11347;BME280;5728;42.722;23.258;2023-09-19T05:55:30;95073.78;;;18.51;77.08
11347;BME280;5728;42.722;23.258;2023-09-19T05:57:57;95076.56;;;18.03;78.79
11347;BME280;5728;42.722;23.258;2023-09-19T06:00:25;95065.94;;;17.84;80.23
11347;BME280;5728;42.722;23.258;2023-09-19T06:02:56;95058.88;;;17.86;80.68
11347;BME280;5728;42.722;23.258;2023-09-19T06:05:23;95057.63;;;17.73;81.04
11347;BME280;5728;42.722;23.258;2023-09-19T06:07:52;95059.13;;;18.23;79.46
11347;BME280;5728;42.722;23.258;2023-09-19T06:10:19;95064.69;;;18.37;78.79
11347;BME280;5728;42.722;23.258;2023-09-19T06:12:48;95060.97;;;18.21;78.16
11347;BME280;5728;42.722;23.258;2023-09-19T06:15:16;95064.13;;;18.08;79.66
11347;BME280;5728;42.722;23.258;2023-09-19T06:17:47;95057.91;;;18.54;78.51
11347;BME280;5728;42.722;23.258;2023-09-19T06:20:16;95047.41;;;18.94;76.01
11347;BME280;5728;42.722;23.258;2023-09-19T06:22:44;95047.91;;;19.22;74.98
11347;BME280;5728;42.722;23.258;2023-09-19T06:25:14;95045.97;;;18.87;75.99
11347;BME280;5728;42.722;23.258;2023-09-19T06:27:44;95045.16;;;19.25;74.90
11347;BME280;5728;42.722;23.258;2023-09-19T06:30:11;95045.78;;;19.88;72.82
11347;BME280;5728;42.722;23.258;2023-09-19T06:32:39;95047.50;;;20.26;71.06
11347;BME280;5728;42.722;23.258;2023-09-19T06:35:09;95050.56;;;20.53;69.69
11347;BME280;5728;42.722;23.258;2023-09-19T06:37:38;95044.59;;;20.83;68.29
11347;BME280;5728;42.722;23.258;2023-09-19T06:40:07;95042.19;;;20.96;67.12
11347;BME280;5728;42.722;23.258;2023-09-19T06:42:39;95051.28;;;21.08;65.91
11347;BME280;5728;42.722;23.258;2023-09-19T06:45:07;95045.84;;;20.93;65.74
11347;BME280;5728;42.722;23.258;2023-09-19T06:47:34;95051.41;;;20.87;67.08
11347;BME280;5728;42.722;23.258;2023-09-19T06:50:02;95055.53;;;20.76;66.75
11347;BME280;5728;42.722;23.258;2023-09-19T06:52:31;95056.06;;;20.82;66.66
11347;BME280;5728;42.722;23.258;2023-09-19T06:55:00;95058.75;;;21.17;65.83
11347;BME280;5728;42.722;23.258;2023-09-19T06:57:28;95056.19;;;21.48;65.52
11347;BME280;5728;42.722;23.258;2023-09-19T06:59:56;95058.66;;;21.51;64.78
11347;BME280;5728;42.722;23.258;2023-09-19T07:02:23;95056.22;;;21.63;63.43
11347;BME280;5728;42.722;23.258;2023-09-19T07:04:49;95068.59;;;21.46;64.48
11347;BME280;5728;42.722;23.258;2023-09-19T07:07:16;95065.72;;;21.50;64.20
11347;BME280;5728;42.722;23.258;2023-09-19T07:09:43;95064.66;;;21.54;63.91
11347;BME280;5728;42.722;23.258;2023-09-19T07:12:12;95056.31;;;21.62;63.92
11347;BME280;5728;42.722;23.258;2023-09-19T07:14:39;95061.19;;;21.37;63.67
11347;BME280;5728;42.722;23.258;2023-09-19T07:17:06;95056.53;;;21.42;63.93
11347;BME280;5728;42.722;23.258;2023-09-19T07:19:33;95065.50;;;21.38;64.07
11347;BME280;5728;42.722;23.258;2023-09-19T07:22:00;95062.31;;;21.48;63.21
11347;BME280;5728;42.722;23.258;2023-09-19T07:24:28;95061.50;;;21.31;64.59
11347;BME280;5728;42.722;23.258;2023-09-19T07:26:55;95062.22;;;21.34;64.77
11347;BME280;5728;42.722;23.258;2023-09-19T07:29:23;95068.56;;;21.63;64.17
11347;BME280;5728;42.722;23.258;2023-09-19T07:31:51;95065.09;;;21.78;62.96
11347;BME280;5728;42.722;23.258;2023-09-19T07:34:18;95070.59;;;21.58;63.70
11347;BME280;5728;42.722;23.258;2023-09-19T07:36:47;95070.72;;;21.72;63.52
11347;BME280;5728;42.722;23.258;2023-09-19T07:39:14;95062.81;;;21.72;63.19
11347;BME280;5728;42.722;23.258;2023-09-19T07:41:41;95067.38;;;22.01;62.00
11347;BME280;5728;42.722;23.258;2023-09-19T07:44:08;95062.19;;;21.83;62.25
11347;BME280;5728;42.722;23.258;2023-09-19T07:46:37;95071.47;;;21.91;62.52
11347;BME280;5728;42.722;23.258;2023-09-19T07:49:04;95067.88;;;22.23;61.97
11347;BME280;5728;42.722;23.258;2023-09-19T07:51:31;95072.31;;;21.92;61.32
11347;BME280;5728;42.722;23.258;2023-09-19T07:53:58;95073.88;;;21.46;63.76
11347;BME280;5728;42.722;23.258;2023-09-19T07:56:25;95068.91;;;21.90;62.69
11347;BME280;5728;42.722;23.258;2023-09-19T07:58:53;95073.16;;;22.23;61.41
11347;BME280;5728;42.722;23.258;2023-09-19T08:01:20;95061.03;;;22.51;60.74
11347;BME280;5728;42.722;23.258;2023-09-19T08:03:50;95062.09;;;22.64;59.68
11347;BME280;5728;42.722;23.258;2023-09-19T08:06:17;95053.09;;;22.51;60.11
11347;BME280;5728;42.722;23.258;2023-09-19T08:08:45;95056.59;;;22.51;59.81
11347;BME280;5728;42.722;23.258;2023-09-19T08:11:12;95056.72;;;22.50;59.43
11347;BME280;5728;42.722;23.258;2023-09-19T08:13:46;95047.59;;;22.55;59.22
11347;BME280;5728;42.722;23.258;2023-09-19T08:16:14;95049.13;;;22.28;60.77
11347;BME280;5728;42.722;23.258;2023-09-19T08:18:41;95045.38;;;22.01;60.19
11347;BME280;5728;42.722;23.258;2023-09-19T08:21:11;95042.28;;;21.77;62.04
11347;BME280;5728;42.722;23.258;2023-09-19T08:23:41;95041.22;;;21.97;61.95
11347;BME280;5728;42.722;23.258;2023-09-19T08:26:08;95046.56;;;21.95;60.94
11347;BME280;5728;42.722;23.258;2023-09-19T08:28:35;95041.63;;;22.20;59.87
11347;BME280;5728;42.722;23.258;2023-09-19T08:31:07;95046.25;;;22.01;61.30
11347;BME280;5728;42.722;23.258;2023-09-19T08:33:35;95045.63;;;21.48;62.45
11347;BME280;5728;42.722;23.258;2023-09-19T08:36:02;95045.97;;;21.90;61.05
11347;BME280;5728;42.722;23.258;2023-09-19T08:38:35;95041.41;;;22.09;60.89
11347;BME280;5728;42.722;23.258;2023-09-19T08:41:06;95046.13;;;22.50;60.12
11347;BME280;5728;42.722;23.258;2023-09-19T08:43:33;95052.56;;;22.30;59.70
11347;BME280;5728;42.722;23.258;2023-09-19T08:46:08;95042.16;;;21.63;61.56
11347;BME280;5728;42.722;23.258;2023-09-19T08:48:39;95027.97;;;21.81;62.03
11347;BME280;5728;42.722;23.258;2023-09-19T08:51:12;95030.94;;;21.92;61.96
11347;BME280;5728;42.722;23.258;2023-09-19T08:53:51;95037.03;;;22.40;60.32
11347;BME280;5728;42.722;23.258;2023-09-19T08:56:18;95037.81;;;22.87;59.02
11347;BME280;5728;42.722;23.258;2023-09-19T08:58:50;95036.34;;;23.11;57.91
11347;BME280;5728;42.722;23.258;2023-09-19T09:01:19;95027.72;;;23.52;56.73
11347;BME280;5728;42.722;23.258;2023-09-19T09:03:51;95032.53;;;23.59;56.23
11347;BME280;5728;42.722;23.258;2023-09-19T09:06:19;95034.72;;;23.67;55.31
11347;BME280;5728;42.722;23.258;2023-09-19T09:08:48;95030.09;;;23.70;55.07
11347;BME280;5728;42.722;23.258;2023-09-19T09:11:16;95035.56;;;23.67;55.86
11347;BME280;5728;42.722;23.258;2023-09-19T09:13:44;95022.75;;;23.31;56.02
11347;BME280;5728;42.722;23.258;2023-09-19T09:16:11;95026.16;;;22.75;58.63
11347;BME280;5728;42.722;23.258;2023-09-19T09:18:39;95018.56;;;22.69;58.80
11347;BME280;5728;42.722;23.258;2023-09-19T09:21:06;95016.63;;;22.73;58.76
11347;BME280;5728;42.722;23.258;2023-09-19T09:23:33;95021.25;;;23.27;56.96
11347;BME280;5728;42.722;23.258;2023-09-19T09:26:01;95007.09;;;23.28;58.02
11347;BME280;5728;42.722;23.258;2023-09-19T09:28:32;94999.97;;;23.99;54.64
11347;BME280;5728;42.722;23.258;2023-09-19T09:31:01;95002.72;;;23.98;54.53
11347;BME280;5728;42.722;23.258;2023-09-19T09:33:33;94987.41;;;24.30;52.84
11347;BME280;5728;42.722;23.258;2023-09-19T09:36:01;94991.66;;;24.32;53.15
11347;BME280;5728;42.722;23.258;2023-09-19T09:38:30;94981.56;;;24.78;52.92
11347;BME280;5728;42.722;23.258;2023-09-19T09:41:12;94980.00;;;25.38;51.13
11347;BME280;5728;42.722;23.258;2023-09-19T09:43:41;94982.28;;;25.57;50.27
11347;BME280;5728;42.722;23.258;2023-09-19T09:46:13;94967.25;;;25.69;49.40
11347;BME280;5728;42.722;23.258;2023-09-19T09:49:06;94976.78;;;25.84;49.00
11347;BME280;5728;42.722;23.258;2023-09-19T09:52:00;94981.50;;;25.43;49.56
11347;BME280;5728;42.722;23.258;2023-09-19T09:54:31;94987.66;;;25.30;50.01
11347;BME280;5728;42.722;23.258;2023-09-19T09:57:04;94978.22;;;25.26;50.34
11347;BME280;5728;42.722;23.258;2023-09-19T09:59:50;94969.25;;;24.50;51.74
11347;BME280;5728;42.722;23.258;2023-09-19T10:02:20;94971.22;;;24.73;51.95
11347;BME280;5728;42.722;23.258;2023-09-19T10:04:53;94974.09;;;25.10;51.20
11347;BME280;5728;42.722;23.258;2023-09-19T10:07:35;94969.19;;;25.04;50.71
11347;BME280;5728;42.722;23.258;2023-09-19T10:10:04;94972.16;;;24.99;51.51
11347;BME280;5728;42.722;23.258;2023-09-19T10:12:46;94968.47;;;24.75;51.57
11347;BME280;5728;42.722;23.258;2023-09-19T10:15:15;94959.44;;;25.17;51.29
11347;BME280;5728;42.722;23.258;2023-09-19T10:17:43;94961.09;;;25.18;50.78
11347;BME280;5728;42.722;23.258;2023-09-19T10:20:15;94959.50;;;25.03;50.70
11347;BME280;5728;42.722;23.258;2023-09-19T10:23:04;94976.50;;;25.38;50.27
11347;BME280;5728;42.722;23.258;2023-09-19T10:25:36;94974.50;;;25.29;50.22
11347;BME280;5728;42.722;23.258;2023-09-19T10:28:06;94967.63;;;24.74;51.28
11347;BME280;5728;42.722;23.258;2023-09-19T10:30:37;94963.66;;;25.32;50.01
11347;BME280;5728;42.722;23.258;2023-09-19T10:33:08;94958.78;;;25.26;50.56
11347;BME280;5728;42.722;23.258;2023-09-19T10:35:38;94958.22;;;25.71;49.08
11347;BME280;5728;42.722;23.258;2023-09-19T10:38:06;94968.75;;;25.73;48.71
11347;BME280;5728;42.722;23.258;2023-09-19T10:40:35;94964.88;;;25.89;48.22
11347;BME280;5728;42.722;23.258;2023-09-19T10:43:05;94957.81;;;26.14;48.20
11347;BME280;5728;42.722;23.258;2023-09-19T10:45:34;94952.94;;;26.08;48.90
11347;BME280;5728;42.722;23.258;2023-09-19T10:48:04;94950.13;;;26.22;48.13
11347;BME280;5728;42.722;23.258;2023-09-19T10:50:35;94954.00;;;26.18;47.29
11347;BME280;5728;42.722;23.258;2023-09-19T10:53:05;94939.03;;;25.91;48.69
11347;BME280;5728;42.722;23.258;2023-09-19T10:55:34;94941.13;;;25.75;48.83
11347;BME280;5728;42.722;23.258;2023-09-19T10:58:02;94946.75;;;25.71;48.86
11347;BME280;5728;42.722;23.258;2023-09-19T11:00:52;94939.81;;;25.81;49.57
11347;BME280;5728;42.722;23.258;2023-09-19T11:03:20;94940.25;;;25.87;48.85
11347;BME280;5728;42.722;23.258;2023-09-19T11:06:03;94939.66;;;26.31;47.61
11347;BME280;5728;42.722;23.258;2023-09-19T11:08:58;94936.06;;;26.32;47.12
11347;BME280;5728;42.722;23.258;2023-09-19T11:11:43;94937.94;;;26.54;46.62
11347;BME280;5728;42.722;23.258;2023-09-19T11:14:15;94937.59;;;26.82;45.50
11347;BME280;5728;42.722;23.258;2023-09-19T11:23:20;94924.22;;;26.71;45.64
11347;BME280;5728;42.722;23.258;2023-09-19T11:25:49;94919.38;;;26.30;46.89
11347;BME280;5728;42.722;23.258;2023-09-19T11:28:35;94916.47;;;25.73;48.64
11347;BME280;5728;42.722;23.258;2023-09-19T11:34:39;94902.59;;;26.41;47.48
11347;BME280;5728;42.722;23.258;2023-09-19T11:40:13;94884.88;;;26.18;46.77
11347;BME280;5728;42.722;23.258;2023-09-19T11:42:43;94886.72;;;26.63;46.37
11347;BME280;5728;42.722;23.258;2023-09-19T11:48:16;94874.75;;;27.03;45.38
11347;BME280;5728;42.722;23.258;2023-09-19T11:50:45;94886.25;;;27.37;44.14
11347;BME280;5728;42.722;23.258;2023-09-19T11:53:12;94878.16;;;27.61;44.79
11347;BME280;5728;42.722;23.258;2023-09-19T11:55:44;94881.06;;;27.69;43.68
11347;BME280;5728;42.722;23.258;2023-09-19T11:58:12;94875.22;;;27.86;43.86
11347;BME280;5728;42.722;23.258;2023-09-19T12:00:44;94867.50;;;28.15;43.00
11347;BME280;5728;42.722;23.258;2023-09-19T12:03:12;94857.16;;;28.01;43.76
11347;BME280;5728;42.722;23.258;2023-09-19T12:05:40;94855.97;;;27.05;45.01
11347;BME280;5728;42.722;23.258;2023-09-19T12:08:07;94852.03;;;27.98;43.98
11347;BME280;5728;42.722;23.258;2023-09-19T12:10:45;94853.16;;;28.59;42.15
11347;BME280;5728;42.722;23.258;2023-09-19T12:13:16;94860.06;;;29.23;40.26
11347;BME280;5728;42.722;23.258;2023-09-19T12:15:43;94851.31;;;29.82;39.84
11347;BME280;5728;42.722;23.258;2023-09-19T12:18:26;94846.44;;;30.06;39.03
11347;BME280;5728;42.722;23.258;2023-09-19T12:20:53;94833.81;;;29.68;39.74
11347;BME280;5728;42.722;23.258;2023-09-19T12:23:21;94835.16;;;29.53;39.70
11347;BME280;5728;42.722;23.258;2023-09-19T12:25:49;94832.06;;;30.07;38.71
11347;BME280;5728;42.722;23.258;2023-09-19T12:28:19;94821.94;;;30.29;38.90
11347;BME280;5728;42.722;23.258;2023-09-19T12:30:47;94829.28;;;30.75;37.94
11347;BME280;5728;42.722;23.258;2023-09-19T12:33:16;94824.97;;;31.21;36.96
11347;BME280;5728;42.722;23.258;2023-09-19T12:35:45;94824.28;;;31.19;37.03
11347;BME280;5728;42.722;23.258;2023-09-19T12:38:24;94822.41;;;30.63;37.71
11347;BME280;5728;42.722;23.258;2023-09-19T12:40:55;94817.47;;;30.40;37.58
11347;BME280;5728;42.722;23.258;2023-09-19T12:43:24;94825.72;;;30.84;37.21
11347;BME280;5728;42.722;23.258;2023-09-19T12:45:52;94823.75;;;31.06;36.78
11347;BME280;5728;42.722;23.258;2023-09-19T12:48:23;94822.31;;;31.02;36.72
11347;BME280;5728;42.722;23.258;2023-09-19T12:51:03;94816.19;;;31.65;35.96
11347;BME280;5728;42.722;23.258;2023-09-19T12:53:34;94812.13;;;31.61;35.83
11347;BME280;5728;42.722;23.258;2023-09-19T12:56:06;94808.25;;;31.36;36.08
11347;BME280;5728;42.722;23.258;2023-09-19T12:58:35;94808.25;;;31.46;36.14
11347;BME280;5728;42.722;23.258;2023-09-19T13:01:14;94801.41;;;31.15;36.74
11347;BME280;5728;42.722;23.258;2023-09-19T13:03:41;94791.97;;;31.20;36.80
11347;BME280;5728;42.722;23.258;2023-09-19T13:06:08;94795.69;;;31.37;36.26
11347;BME280;5728;42.722;23.258;2023-09-19T13:08:37;94796.88;;;31.25;36.88
11347;BME280;5728;42.722;23.258;2023-09-19T13:11:13;94792.88;;;30.82;36.90
11347;BME280;5728;42.722;23.258;2023-09-19T13:13:45;94792.06;;;30.91;36.90
11347;BME280;5728;42.722;23.258;2023-09-19T13:16:14;94787.84;;;31.26;36.59
11347;BME280;5728;42.722;23.258;2023-09-19T13:18:46;94783.41;;;31.07;36.46
11347;BME280;5728;42.722;23.258;2023-09-19T13:21:16;94785.84;;;31.28;36.65
11347;BME280;5728;42.722;23.258;2023-09-19T13:23:51;94794.84;;;31.46;35.50
11347;BME280;5728;42.722;23.258;2023-09-19T13:26:19;94773.47;;;31.81;35.07
11347;BME280;5728;42.722;23.258;2023-09-19T13:28:48;94774.84;;;31.31;35.92
11347;BME280;5728;42.722;23.258;2023-09-19T13:31:15;94774.28;;;31.27;35.85